Map

Track Data

SID SEASON NUMBER BASIN SUBBASIN NAME ISO_TIME NATURE LAT LON WMO_WIND WMO_PRES WMO_AGENCY TRACK_TYPE DIST2LAND LANDFALL IFLAG USA_AGENCY USA_ATCF_ID USA_LAT USA_LON USA_RECORD USA_STATUS USA_WIND USA_PRES USA_SSHS USA_R34_NE USA_R34_SE USA_R34_SW USA_R34_NW USA_R50_NE USA_R50_SE USA_R50_SW USA_R50_NW USA_R64_NE USA_R64_SE USA_R64_SW USA_R64_NW USA_POCI USA_ROCI USA_RMW USA_EYE TOKYO_LAT TOKYO_LON TOKYO_GRADE TOKYO_WIND TOKYO_PRES TOKYO_R50_DIR TOKYO_R50_LONG TOKYO_R50_SHORT TOKYO_R30_DIR TOKYO_R30_LONG TOKYO_R30_SHORT TOKYO_LAND CMA_LAT CMA_LON CMA_CAT CMA_WIND CMA_PRES HKO_LAT HKO_LON HKO_CAT HKO_WIND HKO_PRES NEWDELHI_LAT NEWDELHI_LON NEWDELHI_GRADE NEWDELHI_WIND NEWDELHI_PRES NEWDELHI_CI NEWDELHI_DP NEWDELHI_POCI REUNION_LAT REUNION_LON REUNION_TYPE REUNION_WIND REUNION_PRES REUNION_TNUM REUNION_CI REUNION_RMW REUNION_R34_NE REUNION_R34_SE REUNION_R34_SW REUNION_R34_NW REUNION_R50_NE REUNION_R50_SE REUNION_R50_SW REUNION_R50_NW REUNION_R64_NE REUNION_R64_SE REUNION_R64_SW REUNION_R64_NW BOM_LAT BOM_LON BOM_TYPE BOM_WIND BOM_PRES BOM_TNUM BOM_CI BOM_RMW BOM_R34_NE BOM_R34_SE BOM_R34_SW BOM_R34_NW BOM_R50_NE BOM_R50_SE BOM_R50_SW BOM_R50_NW BOM_R64_NE BOM_R64_SE BOM_R64_SW BOM_R64_NW BOM_ROCI BOM_POCI BOM_EYE BOM_POS_METHOD BOM_PRES_METHOD NADI_LAT NADI_LON NADI_CAT NADI_WIND NADI_PRES WELLINGTON_LAT WELLINGTON_LON WELLINGTON_WIND WELLINGTON_PRES DS824_LAT DS824_LON DS824_STAGE DS824_WIND DS824_PRES TD9636_LAT TD9636_LON TD9636_STAGE TD9636_WIND TD9636_PRES TD9635_LAT TD9635_LON TD9635_WIND TD9635_PRES TD9635_ROCI NEUMANN_LAT NEUMANN_LON NEUMANN_CLASS NEUMANN_WIND NEUMANN_PRES MLC_LAT MLC_LON MLC_CLASS MLC_WIND MLC_PRES USA_GUST BOM_GUST BOM_GUST_PER REUNION_GUST REUNION_GUST_PER USA_SEAHGT USA_SEARAD_NE USA_SEARAD_SE USA_SEARAD_SW USA_SEARAD_NW STORM_SPEED STORM_DIR
1958052S19038 1958 15 SI MM NOT_NAMED 1958-02-21 06:00:00 NR -18.7000 37.8000 reunion main 107 107 _____O________ -1 -18.7000 37.8000 99 9.90000 4 47
1958052S19038 1958 15 SI MM NOT_NAMED 1958-02-21 09:00:00 NR -18.5726 37.9431 main 110 110 _____P________ -1 -18.5726 37.9431 99 4 47
1958052S19038 1958 15 SI MM NOT_NAMED 1958-02-21 12:00:00 NR -18.4453 38.0879 main 113 109 _____P________ -1 -18.4453 38.0879 99 4 47
1958052S19038 1958 15 SI MM NOT_NAMED 1958-02-21 15:00:00 NR -18.3185 38.2363 main 109 102 _____P________ -1 -18.3185 38.2363 99 4 49
1958052S19038 1958 15 SI MM NOT_NAMED 1958-02-21 18:00:00 NR -18.1923 38.3903 main 105 99 _____P________ -1 -18.1923 38.3903 99 4 50
1958052S19038 1958 15 SI MM NOT_NAMED 1958-02-21 21:00:00 NR -18.0672 38.5518 main 104 94 _____P________ -1 -18.0672 38.5518 99 4 52
1958052S19038 1958 15 SI MM NOT_NAMED 1958-02-22 00:00:00 NR -17.9433 38.7226 main 89 81 _____P________ -1 -17.9433 38.7226 99 4 54
1958052S19038 1958 15 SI MM NOT_NAMED 1958-02-22 03:00:00 NR -17.8208 38.9047 main 81 74 _____P________ -1 -17.8208 38.9047 99 4 56
1958052S19038 1958 15 SI MM NOT_NAMED 1958-02-22 06:00:00 NR -17.7000 39.1000 reunion main 78 67 _____O________ -1 -17.7000 39.1000 99 9.90000 5 58
1958052S19038 1958 15 SI MM NOT_NAMED 1958-02-22 09:00:00 NR -17.5813 39.3095 main 70 64 _____P________ -1 -17.5813 39.3095 99 5 60
1958052S19038 1958 15 SI MM NOT_NAMED 1958-02-22 12:00:00 NR -17.4656 39.5305 main 70 69 _____P________ -1 -17.4656 39.5305 99 5 62
1958052S19038 1958 15 SI MM NOT_NAMED 1958-02-22 15:00:00 NR -17.3541 39.7594 main 85 77 _____P________ -1 -17.3541 39.7594 99 5 64
1958052S19038 1958 15 SI MM NOT_NAMED 1958-02-22 18:00:00 NR -17.2479 39.9928 main 79 79 _____P________ -1 -17.2479 39.9928 99 5 65
1958052S19038 1958 15 SI MM NOT_NAMED 1958-02-22 21:00:00 NR -17.1482 40.2271 main 79 79 _____P________ -1 -17.1482 40.2271 99 5 67
1958052S19038 1958 15 SI MM NOT_NAMED 1958-02-23 00:00:00 NR -17.0562 40.4587 main 100 93 _____P________ -1 -17.0562 40.4587 99 5 68
1958052S19038 1958 15 SI MM NOT_NAMED 1958-02-23 03:00:00 NR -16.9731 40.6842 main 110 110 _____P________ -1 -16.9731 40.6842 99 5 70
1958052S19038 1958 15 SI MM NOT_NAMED 1958-02-23 06:00:00 NR -16.9000 40.9000 reunion main 123 123 _____O________ -1 -16.9000 40.9000 99 9.90000 4 69
1958052S19038 1958 15 SI MM NOT_NAMED 1958-02-23 09:00:00 NR -16.8200 41.1030 main 135 135 _____P________ -1 -16.8200 41.1030 99 4 68
1958052S19038 1958 15 SI MM NOT_NAMED 1958-02-23 12:00:00 NR -16.7482 41.2989 main 146 146 _____P________ -1 -16.7482 41.2989 99 4 70
1958052S19038 1958 15 SI MM NOT_NAMED 1958-02-23 15:00:00 NR -16.6867 41.4872 main 162 144 _____P________ -1 -16.6867 41.4872 99 7 33
1958052S19038 1958 15 SI MM NOT_NAMED 1958-02-23 18:00:00 TS -16.1927 41.6814 main 147 141 O____P___OO___ jtwc_sh SH171958 -15.6000 41.7000 -1 -16.6373 41.6674 99 -15.6000 41.7000 TC -15.6000 41.7000 7 7 25
1958052S19038 1958 15 SI MM NOT_NAMED 1958-02-23 21:00:00 TS -16.0902 41.7842 main 150 150 P____P___PP___ SH171958 -15.7375 41.7400 -1 -16.6020 41.8393 99 -15.7375 41.7400 TC -15.7719 41.7625 7 2 68
1958052S19038 1958 15 SI MM NOT_NAMED 1958-02-24 00:00:00 TS -16.1204 41.8691 main 159 159 O____P___OP___ jtwc_sh SH171958 -15.9000 41.8000 -1 -16.5827 42.0022 99 -15.9000 41.8000 TC -15.9450 41.8300 7 2 128
1958052S19038 1958 15 SI MM NOT_NAMED 1958-02-24 03:00:00 TS -16.2255 41.9621 main 174 174 P____P___PP___ SH171958 -16.1000 41.8925 -1 -16.5814 42.1559 99 -16.1000 41.8925 TC -16.1206 41.9075 7 3 142
1958052S19038 1958 15 SI MM NOT_NAMED 1958-02-24 06:00:00 TS -16.3750 42.0750 reunion main 195 195 O____O___OO___ jtwc_sh SH171958 -16.3000 42.0000 -1 -16.6000 42.3000 99 9.90000 -16.3000 42.0000 TC 25 -16.3000 42.0000 1 3 143
1958052S19038 1958 15 SI MM NOT_NAMED 1958-02-24 09:00:00 TS -16.5002 42.1814 main 210 197 P____P___PP___ SH171958 -16.4500 42.0926 -1 -16.6178 42.4301 99 -16.4500 42.0926 TC 25 -16.4831 42.1106 1 3 140
1958052S19038 1958 15 SI MM NOT_NAMED 1958-02-24 12:00:00 TS -16.6298 42.2960 main 197 177 O____P___OP___ jtwc_sh SH171958 -16.6000 42.2000 -1 -16.6540 42.5490 99 -16.6000 42.2000 TC 25 -16.6650 42.2350 1 4 140
1958052S19038 1958 15 SI MM NOT_NAMED 1958-02-24 15:00:00 TS -16.7909 42.4316 main 177 153 P____P___PP___ SH171958 -16.8075 42.3499 -1 -16.7093 42.6598 99 -16.8075 42.3499 TC 25 -16.8394 42.3668 1 4 141
1958052S19038 1958 15 SI MM NOT_NAMED 1958-02-24 18:00:00 TS -16.9461 42.5664 main 153 139 O____P___OO___ jtwc_sh SH171958 -17.0000 42.5000 -1 -16.7845 42.7656 99 -17.0000 42.5000 TC 25 -17.0000 42.5000 1 4 139
1958052S19038 1958 15 SI MM NOT_NAMED 1958-02-24 21:00:00 TS -17.0536 42.6727 main 135 121 P____P___PP___ SH171958 -17.1075 42.6001 -1 -16.8804 42.8694 99 -17.1075 42.6001 TC 25 -17.1190 42.6212 1 3 136
1958052S19038 1958 15 SI MM NOT_NAMED 1958-02-25 00:00:00 TS -17.1563 42.7793 main 121 108 O____P___OP___ jtwc_sh SH171958 -17.2000 42.7000 -1 -16.9978 42.9744 99 -17.2000 42.7000 TC 25 -17.2274 42.7428 1 3 136
1958052S19038 1958 15 SI MM NOT_NAMED 1958-02-25 03:00:00 TS -17.2849 42.9092 main 108 96 P____P___PP___ SH171958 -17.3275 42.8425 -1 -17.1374 43.0835 99 -17.3275 42.8425 TC 30 -17.3471 42.8681 1 4 139
1958052S19038 1958 15 SI MM NOT_NAMED 1958-02-25 06:00:00 TS -17.4500 43.0500 reunion main 85 75 O____O___OO___ jtwc_sh SH171958 -17.5000 43.0000 -1 -17.3000 43.2000 99 9.90000 -17.5000 43.0000 TC 35 -17.5000 43.0000 2 5 145
1958052S19038 1958 15 SI MM NOT_NAMED 1958-02-25 09:00:00 TS -17.6748 43.1956 main 77 71 P____P___PP___ SH171958 -17.7350 43.1500 -1 -17.5028 43.3356 99 -17.7350 43.1500 TC 35 -17.7263 43.1467 2 6 150
1958052S19038 1958 15 SI MM NOT_NAMED 1958-02-25 12:00:00 TS -17.9296 43.3443 main 74 52 O____P___OP___ jtwc_sh SH171958 -18.0000 43.3000 -1 -17.7334 43.4775 99 -18.0000 43.3000 TC 35 -17.9850 43.2998 2 6 151
1958052S19038 1958 15 SI MM NOT_NAMED 1958-02-25 15:00:00 TS -18.1873 43.4982 main 52 42 P____P___PP___ SH171958 -18.2575 43.4575 -1 -17.9830 43.6248 99 -18.2575 43.4575 TC 35 -18.2513 43.4530 2 6 150
1958052S19038 1958 15 SI MM NOT_NAMED 1958-02-25 18:00:00 TS -18.4356 43.6441 main 42 30 O____P___OO___ jtwc_sh SH171958 -18.5000 43.6000 -1 -18.2425 43.7762 99 -18.5000 43.6000 TC 35 -18.5000 43.6000 2 5 152
1958052S19038 1958 15 SI MM NOT_NAMED 1958-02-25 21:00:00 TS -18.6614 43.7658 main 38 31 P____P___PP___ SH171958 -18.7150 43.7001 -1 -18.5030 43.9306 99 -18.7150 43.7001 TC 35 -18.7128 43.7323 2 5 152
1958052S19038 1958 15 SI MM NOT_NAMED 1958-02-26 00:00:00 TS -18.8644 43.8861 main 31 21 O____P___OP___ jtwc_sh SH171958 -18.9000 43.8000 -1 -18.7553 44.0869 99 -18.9000 43.8000 TC 35 -18.9024 43.8576 2 5 147
1958052S19038 1958 15 SI MM NOT_NAMED 1958-02-26 03:00:00 TS -19.0466 44.0307 main 21 10 P____P___PP___ SH171958 -19.0650 43.9500 -1 -18.9907 44.2438 99 -19.0650 43.9500 TC 35 -19.0659 43.9791 2 4 141
1958052S19038 1958 15 SI MM NOT_NAMED 1958-02-26 06:00:00 TS -19.2000 44.1750 reunion main 10 10 O____O___OO___ jtwc_sh SH171958 -19.2000 44.1000 -1 -19.2000 44.4000 99 9.90000 -19.2000 44.1000 TC 35 -19.2000 44.1000 2 4 138
1958052S19038 1958 15 SI MM NOT_NAMED 1958-02-26 09:00:00 TS -19.3261 44.2957 main 10 10 P____P___PP___ SH171958 -19.3150 44.2000 -1 -19.3626 44.5618 99 -19.3150 44.2000 TC 35 -19.3118 44.2210 2 3 135
1958052S19038 1958 15 SI MM NOT_NAMED 1958-02-26 12:00:00 TS -19.4246 44.4169 main 10 0 O____P___OP___ jtwc_sh SH171958 -19.4000 44.3000 -1 -19.5035 44.7248 99 -19.4000 44.3000 TC 35 -19.3949 44.3426 2 3 125
1958052S19038 1958 15 SI MM NOT_NAMED 1958-02-26 15:00:00 TS -19.5025 44.5599 main 0 0 P____P___PP___ SH171958 -19.4650 44.4425 -1 -19.6245 44.8868 99 -19.4650 44.4425 TC 35 -19.4556 44.4679 2 3 116
1958052S19038 1958 15 SI MM NOT_NAMED 1958-02-26 18:00:00 TS -19.5569 44.7114 main 0 0 O____P___OO___ jtwc_sh SH171958 -19.5000 44.6000 -1 -19.7276 45.0455 99 -19.5000 44.6000 TC 35 -19.5000 44.6000 2 3 106
1958052S19038 1958 15 SI MM NOT_NAMED 1958-02-26 21:00:00 TS -19.5845 44.8624 main 0 0 P____P___PP___ SH171958 -19.5000 44.7500 -1 -19.8148 45.1984 99 -19.5000 44.7500 TC 30 -19.5232 44.7511 2 3 100
1958052S19038 1958 15 SI MM NOT_NAMED 1958-02-27 00:00:00 TS -19.6057 45.0128 main 0 0 O____P___OP___ jtwc_sh SH171958 -19.5000 44.9000 -1 -19.8879 45.3434 99 -19.5000 44.9000 TC 25 -19.5351 44.9077 2 3 102
1958052S19038 1958 15 SI MM NOT_NAMED 1958-02-27 03:00:00 TS -19.6434 45.1634 main 0 0 P____P___PP___ SH171958 -19.5350 45.0575 -1 -19.9490 45.4780 99 -19.5350 45.0575 TC 25 -19.5544 45.0605 2 3 109
1958052S19038 1958 15 SI MM NOT_NAMED 1958-02-27 06:00:00 TS -19.7000 45.3000 reunion main 0 0 O____O___OO___ jtwc_sh SH171958 -19.6000 45.2000 -1 -20.0000 45.6000 99 9.90000 -19.6000 45.2000 TC 25 -19.6000 45.2000 1 3 120
1958052S19038 1958 15 SI MM NOT_NAMED 1958-02-27 09:00:00 TS -19.7772 45.4113 main 0 0 P____P___PP___ SH171958 -19.6850 45.3075 -1 -20.0427 45.7078 99 -19.6850 45.3075 TC 25 -19.6962 45.3224 1 3 132
1958052S19038 1958 15 SI MM NOT_NAMED 1958-02-27 12:00:00 TS -19.8746 45.5081 main 0 0 O____P___OP___ jtwc_sh SH171958 -19.8000 45.4000 -1 -20.0783 45.8024 99 -19.8000 45.4000 TC 25 -19.8200 45.4299 1 3 140
1958052S19038 1958 15 SI MM NOT_NAMED 1958-02-27 15:00:00 TS -19.9917 45.6058 main 0 0 P____P___PP___ SH171958 -19.9500 45.5075 -1 -20.1079 45.8859 99 -19.9500 45.5075 TC 25 -19.9587 45.5224 1 3 143
1958052S19038 1958 15 SI MM NOT_NAMED 1958-02-27 18:00:00 TS -20.1081 45.6900 main 0 0 O____P___OO___ jtwc_sh SH171958 -20.1000 45.6000 -1 -20.1324 45.9599 99 -20.1000 45.6000 TC 25 -20.1000 45.6000 1 2 146
1958052S19038 1958 15 SI MM NOT_NAMED 1958-02-27 21:00:00 TS -20.1966 45.7512 main 0 0 P____P___PP___ SH171958 -20.2000 45.6575 -1 -20.1528 46.0265 99 -20.2000 45.6575 TC 25 -20.2338 45.6632 1 2 150
1958052S19038 1958 15 SI MM NOT_NAMED 1958-02-28 00:00:00 TS -20.2826 45.8006 main 0 0 O____P___OP___ jtwc_sh SH171958 -20.3000 45.7000 -1 -20.1702 46.0875 99 -20.3000 45.7000 TC 25 -20.3600 45.7150 1 2 154
1958052S19038 1958 15 SI MM NOT_NAMED 1958-02-28 03:00:00 TS -20.3855 45.8497 main 0 0 P____P___PP___ SH171958 -20.4375 45.7475 -1 -20.1856 46.1447 99 -20.4375 45.7475 TC 25 -20.4813 45.7594 1 2 156
1958052S19038 1958 15 SI MM NOT_NAMED 1958-02-28 06:00:00 TS -20.5000 45.9000 reunion main 0 O____O___OO___ jtwc_sh SH171958 -20.6000 45.8000 -1 -20.2000 46.2000 99 9.90000 -20.6000 45.8000 TC 25 -20.6000 45.8000 1 2 165

About IBTrACS Database

This database is a web-friendly format of International Best Track Archive for Climate Stewardship (IBTrACS), a global best track data archive curated by NOAA dating back to 1842.

Updated: 2021-12-06